createdAt,value
2022-12-09T00:01:19.415Z,7.10
2022-12-09T00:03:47.284Z,7.10
2022-12-09T00:06:20.392Z,7.10
2022-12-09T00:08:48.434Z,7.20
2022-12-09T00:11:16.002Z,7.10
2022-12-09T00:13:43.192Z,7.30
2022-12-09T00:16:14.797Z,7.10
2022-12-09T00:18:42.809Z,7.10
2022-12-09T00:21:27.612Z,7.10
2022-12-09T00:23:57.773Z,7.20
2022-12-09T00:26:26.369Z,7.10
2022-12-09T00:28:54.113Z,7.20
2022-12-09T00:31:24.640Z,7.10
2022-12-09T00:33:55.134Z,7.20
2022-12-09T00:36:23.815Z,7.50
2022-12-09T00:38:51.530Z,7.20
2022-12-09T00:41:18.810Z,7.20
2022-12-09T00:43:47.775Z,7.20
2022-12-09T00:46:15.302Z,7.20
2022-12-09T00:48:42.611Z,7.20
2022-12-09T00:51:13.157Z,7.20
2022-12-09T00:53:41.217Z,7.20
2022-12-09T00:56:08.444Z,7.20
2022-12-09T00:58:35.591Z,7.30
2022-12-09T01:01:03.046Z,7.60
2022-12-09T01:03:30.413Z,7.40
2022-12-09T01:05:57.974Z,7.20
2022-12-09T01:08:25.177Z,7.20
2022-12-09T01:10:52.168Z,7.20
2022-12-09T01:13:19.377Z,7.20
2022-12-09T01:15:47.571Z,7.20
2022-12-09T01:18:15.316Z,7.20
2022-12-09T01:20:42.192Z,7.10
2022-12-09T01:23:09.226Z,7.20
2022-12-09T01:25:38.315Z,7.40
2022-12-09T01:28:05.593Z,7.20
2022-12-09T01:30:32.505Z,7.20
2022-12-09T01:32:59.512Z,7.20
2022-12-09T01:35:26.515Z,7.20
2022-12-09T01:37:54.196Z,7.20
2022-12-09T01:40:21.174Z,7.20
2022-12-09T01:42:50.167Z,7.40
2022-12-09T01:45:30.336Z,7.20
2022-12-09T01:48:11.385Z,7.20
2022-12-09T01:50:46.253Z,7.20
2022-12-09T01:53:15.692Z,7.20
2022-12-09T01:55:43.347Z,7.20
2022-12-09T01:58:10.880Z,7.20
2022-12-09T02:00:39.359Z,7.20
2022-12-09T02:03:06.974Z,7.20
2022-12-09T02:05:35.976Z,7.10
2022-12-09T02:08:07.776Z,7.40
2022-12-09T02:10:39.121Z,7.20
2022-12-09T02:13:31.482Z,7.20
2022-12-09T02:19:13.257Z,7.20
2022-12-09T02:21:52.691Z,7.20
2022-12-09T02:24:30.776Z,7.20
2022-12-09T02:27:23.518Z,7.20
2022-12-09T02:30:14.878Z,7.20
2022-12-09T02:33:13.308Z,7.20
2022-12-09T02:36:05.728Z,7.20
2022-12-09T02:38:34.700Z,7.20
2022-12-09T02:41:10.185Z,7.20
2022-12-09T02:43:50.143Z,7.20
2022-12-09T02:46:24.415Z,7.20
2022-12-09T02:48:57.375Z,7.20
2022-12-09T02:51:26.853Z,7.20
2022-12-09T02:53:59.155Z,7.20
2022-12-09T02:56:27.938Z,7.20
2022-12-09T02:58:55.294Z,7.20
2022-12-09T03:02:06.540Z,7.20
2022-12-09T03:04:34.477Z,7.20
2022-12-09T03:07:20.838Z,7.20
2022-12-09T03:09:57.862Z,7.20
2022-12-09T03:12:30.547Z,7.10
2022-12-09T03:14:58.512Z,7.10
2022-12-09T03:17:37.004Z,7.30
2022-12-09T03:20:17.301Z,7.10
2022-12-09T03:22:48.247Z,7.10
2022-12-09T03:25:22.016Z,7.20
2022-12-09T03:27:58.995Z,7.10
2022-12-09T03:30:26.203Z,7.10
2022-12-09T03:32:55.603Z,7.10
2022-12-09T03:35:44.033Z,7.10
2022-12-09T03:38:14.048Z,7.10
2022-12-09T03:40:42.750Z,7.10
2022-12-09T03:43:16.341Z,7.00
2022-12-09T03:45:43.789Z,7.10
2022-12-09T03:48:12.193Z,7.00
2022-12-09T03:50:52.589Z,7.10
2022-12-09T03:53:49.755Z,7.40
2022-12-09T03:56:28.314Z,7.10
2022-12-09T03:58:59.040Z,7.10
2022-12-09T04:01:28.320Z,7.00
2022-12-09T04:03:56.592Z,7.10
2022-12-09T04:06:24.724Z,7.10
2022-12-09T04:08:52.299Z,7.10
2022-12-09T04:11:20.906Z,7.10
2022-12-09T04:13:48.259Z,7.40
2022-12-09T04:16:15.614Z,7.10
2022-12-09T04:18:42.757Z,7.00
2022-12-09T04:21:13.194Z,7.10
2022-12-09T04:23:43.412Z,7.10
2022-12-09T04:26:19.400Z,7.10
2022-12-09T04:28:48.754Z,7.10
2022-12-09T04:31:17.438Z,7.10
2022-12-09T04:33:45.104Z,7.10
2022-12-09T04:36:16.677Z,7.10
2022-12-09T04:38:44.170Z,7.10
2022-12-09T04:41:11.710Z,7.10
2022-12-09T04:43:39.520Z,7.20
2022-12-09T04:46:11.523Z,7.20
2022-12-09T04:48:39.873Z,7.20
2022-12-09T04:51:11.998Z,7.20
2022-12-09T04:53:39.471Z,7.10
2022-12-09T04:56:10.465Z,7.10
2022-12-09T04:58:39.051Z,7.10
2022-12-09T05:01:08.299Z,7.10
2022-12-09T05:03:36.044Z,7.10
2022-12-09T05:06:08.762Z,7.10
2022-12-09T05:08:36.025Z,7.10
2022-12-09T05:11:04.067Z,7.10
2022-12-09T05:13:31.625Z,7.10
2022-12-09T05:16:04.230Z,7.10
2022-12-09T05:18:32.106Z,7.00
2022-12-09T05:20:59.007Z,7.10
2022-12-09T05:23:26.128Z,7.20
2022-12-09T05:25:53.946Z,7.00
2022-12-09T05:28:21.101Z,7.20
2022-12-09T05:30:49.058Z,7.00
2022-12-09T05:33:16.707Z,6.90
2022-12-09T05:35:52.274Z,7.00
2022-12-09T05:38:23.149Z,7.00
2022-12-09T05:40:50.699Z,6.90
2022-12-09T05:43:21.722Z,7.00
2022-12-09T05:45:49.118Z,6.90
2022-12-09T05:48:16.390Z,7.00
2022-12-09T05:50:43.460Z,7.00
2022-12-09T05:53:10.624Z,7.00
2022-12-09T05:55:41.175Z,7.00
2022-12-09T05:58:09.224Z,7.00
2022-12-09T06:00:36.466Z,7.00
2022-12-09T06:03:04.507Z,7.00
2022-12-09T06:05:31.804Z,7.00
2022-12-09T06:08:06.664Z,7.00
2022-12-09T06:10:34.355Z,7.00
2022-12-09T06:13:02.658Z,7.00
2022-12-09T06:15:33.243Z,7.00
2022-12-09T06:18:01.313Z,6.90
2022-12-09T06:20:28.575Z,7.00
2022-12-09T06:22:55.784Z,7.10
2022-12-09T06:25:22.743Z,7.00
2022-12-09T06:27:51.928Z,7.40
2022-12-09T06:30:19.662Z,7.00
2022-12-09T06:32:46.787Z,7.00
2022-12-09T06:35:14.807Z,7.30
2022-12-09T06:37:42.335Z,7.10
2022-12-09T06:40:10.219Z,7.20
2022-12-09T06:42:37.653Z,7.20
2022-12-09T06:45:06.301Z,7.40
2022-12-09T06:47:33.888Z,7.20
2022-12-09T06:50:06.769Z,7.20
2022-12-09T06:52:35.323Z,7.30
2022-12-09T06:55:03.078Z,7.30
2022-12-09T06:57:30.159Z,7.50
2022-12-09T06:59:56.957Z,7.30
2022-12-09T07:02:27.234Z,7.20
2022-12-09T07:04:57.339Z,7.20
2022-12-09T07:07:24.680Z,7.20
2022-12-09T07:09:52.076Z,7.20
2022-12-09T07:12:19.127Z,7.20
2022-12-09T07:14:46.291Z,7.30
2022-12-09T07:17:18.543Z,7.20
2022-12-09T07:19:46.613Z,7.30
2022-12-09T07:22:14.638Z,7.20
2022-12-09T07:24:41.948Z,7.20
2022-12-09T07:27:15.786Z,7.50
2022-12-09T07:29:46.358Z,7.20
2022-12-09T07:32:13.287Z,7.20
2022-12-09T07:34:41.387Z,7.40
2022-12-09T07:37:08.566Z,7.20
2022-12-09T07:39:35.567Z,7.60
2022-12-09T07:42:02.420Z,7.30
2022-12-09T07:44:31.110Z,7.30
2022-12-09T07:46:59.399Z,7.30
2022-12-09T07:49:26.634Z,7.40
2022-12-09T07:51:53.795Z,7.30
2022-12-09T07:54:21.492Z,7.30
2022-12-09T07:56:48.765Z,7.30
2022-12-09T07:59:16.928Z,7.30
2022-12-09T08:01:44.615Z,7.40
2022-12-09T08:04:12.344Z,7.40
2022-12-09T08:06:39.551Z,7.40
2022-12-09T08:09:12.350Z,7.50
2022-12-09T08:11:40.230Z,7.40
2022-12-09T08:14:13.011Z,7.40
2022-12-09T08:16:42.223Z,7.40
2022-12-09T08:19:10.255Z,7.40
2022-12-09T08:21:38.274Z,7.40
2022-12-09T08:24:07.840Z,7.40
2022-12-09T08:26:37.583Z,7.40
2022-12-09T08:29:12.064Z,7.40
2022-12-09T08:31:42.387Z,7.40
2022-12-09T08:34:11.126Z,7.40
2022-12-09T08:36:38.598Z,7.40
2022-12-09T08:39:06.991Z,7.40
2022-12-09T08:41:37.804Z,7.40
2022-12-09T08:44:17.422Z,7.40
2022-12-09T08:46:47.563Z,7.40
2022-12-09T08:49:19.143Z,7.40
2022-12-09T08:51:49.292Z,7.40
2022-12-09T08:54:16.786Z,7.40
2022-12-09T08:56:55.129Z,7.50
2022-12-09T08:59:22.935Z,7.50
2022-12-09T09:01:50.673Z,7.50
2022-12-09T09:04:20.484Z,7.50
2022-12-09T09:06:50.282Z,7.60
2022-12-09T09:09:19.353Z,7.60
2022-12-09T09:11:46.731Z,7.60
2022-12-09T09:14:14.893Z,7.60
2022-12-09T09:16:44.656Z,7.50
2022-12-09T09:19:22.016Z,7.50
2022-12-09T09:21:50.004Z,7.50
2022-12-09T09:24:20.009Z,7.50
2022-12-09T09:26:48.442Z,7.50
2022-12-09T09:29:17.545Z,7.50
2022-12-09T09:31:48.675Z,7.50
2022-12-09T09:34:21.546Z,7.50
2022-12-09T09:36:49.167Z,7.50
2022-12-09T09:39:16.195Z,7.60
2022-12-09T09:41:56.516Z,7.60
2022-12-09T09:44:40.566Z,7.60
2022-12-09T09:47:31.586Z,7.90
2022-12-09T09:50:27.421Z,7.60
2022-12-09T09:52:56.030Z,7.60
2022-12-09T09:55:39.467Z,7.60
2022-12-09T09:58:16.330Z,7.60
2022-12-09T10:00:52.816Z,7.60
2022-12-09T10:03:29.233Z,7.60
2022-12-09T10:06:01.013Z,7.60
2022-12-09T10:08:40.074Z,7.60
2022-12-09T10:11:19.813Z,7.60
2022-12-09T10:14:11.058Z,7.60
2022-12-09T10:16:51.381Z,7.70
2022-12-09T10:19:41.826Z,7.60
2022-12-09T10:22:19.675Z,7.60
2022-12-09T10:24:59.190Z,7.60
2022-12-09T10:27:34.255Z,7.60
2022-12-09T10:30:05.766Z,7.60
2022-12-09T10:32:35.866Z,7.60
2022-12-09T10:35:13.268Z,7.70
2022-12-09T10:37:40.917Z,7.60
2022-12-09T10:40:08.116Z,7.70
2022-12-09T10:43:07.254Z,7.70
2022-12-09T10:46:07.862Z,7.70
2022-12-09T10:48:34.176Z,7.70
2022-12-09T10:51:22.822Z,7.70
2022-12-09T10:54:25.059Z,7.70
2022-12-09T10:57:07.618Z,7.70
2022-12-09T10:59:36.151Z,7.70
2022-12-09T11:02:09.837Z,7.70
2022-12-09T11:04:42.912Z,7.60
2022-12-09T11:07:16.699Z,7.60
2022-12-09T11:09:44.026Z,7.70
2022-12-09T11:12:27.389Z,7.70
2022-12-09T11:14:59.968Z,7.70
2022-12-09T11:17:39.152Z,7.70
2022-12-09T11:20:07.176Z,7.70
2022-12-09T11:22:43.417Z,7.60
2022-12-09T11:25:15.986Z,7.60
2022-12-09T11:27:54.600Z,7.60
2022-12-09T11:30:29.297Z,7.60
2022-12-09T11:33:16.939Z,7.60
2022-12-09T11:35:44.181Z,7.60
2022-12-09T11:38:23.689Z,7.60
2022-12-09T11:41:11.095Z,7.60
2022-12-09T11:43:49.434Z,7.60
2022-12-09T11:46:17.334Z,7.60
2022-12-09T11:49:00.828Z,7.60
2022-12-09T11:51:34.722Z,7.60
2022-12-09T11:54:15.268Z,7.60
2022-12-09T11:56:44.078Z,7.60
2022-12-09T11:59:20.084Z,7.60
2022-12-09T12:01:55.039Z,7.60
2022-12-09T12:04:32.529Z,7.60
2022-12-09T12:07:03.853Z,7.60
2022-12-09T12:09:51.017Z,7.60
2022-12-09T12:12:43.992Z,7.60
2022-12-09T12:15:32.091Z,7.60
2022-12-09T12:18:03.595Z,7.60
2022-12-09T12:20:57.134Z,7.50
2022-12-09T12:23:49.601Z,7.50
2022-12-09T12:26:21.979Z,7.50
2022-12-09T12:28:59.071Z,7.60
2022-12-09T12:31:31.744Z,7.70
2022-12-09T12:34:27.991Z,7.60
2022-12-09T12:37:04.058Z,7.60
2022-12-09T12:39:31.134Z,7.60
2022-12-09T12:42:23.924Z,7.60
2022-12-09T12:45:40.993Z,7.60
2022-12-09T12:48:26.940Z,7.60
2022-12-09T12:51:12.937Z,7.60
2022-12-09T12:53:57.835Z,7.60
2022-12-09T12:56:31.973Z,7.70
2022-12-09T12:59:33.161Z,7.70
2022-12-09T13:02:31.191Z,7.70
2022-12-09T13:05:03.439Z,7.70
2022-12-09T13:07:41.791Z,7.80
2022-12-09T13:10:27.026Z,7.70
2022-12-09T13:12:59.621Z,7.70
2022-12-09T13:15:41.967Z,7.70
2022-12-09T13:18:36.023Z,7.70
2022-12-09T13:21:06.305Z,7.70
2022-12-09T13:24:00.057Z,7.70
2022-12-09T13:26:29.920Z,7.70
2022-12-09T13:29:04.757Z,7.70
2022-12-09T13:31:34.455Z,7.70
2022-12-09T13:34:14.422Z,7.70
2022-12-09T13:36:46.660Z,7.70
2022-12-09T13:39:39.417Z,7.80
2022-12-09T13:42:46.659Z,7.70
2022-12-09T13:45:25.222Z,7.70
2022-12-09T13:47:57.425Z,7.70
2022-12-09T13:50:27.580Z,7.70
2022-12-09T13:53:02.398Z,7.60
2022-12-09T13:55:49.800Z,7.70
2022-12-09T13:58:35.708Z,7.90
2022-12-09T14:01:29.092Z,7.70
2022-12-09T14:04:26.830Z,7.70
2022-12-09T14:07:22.907Z,7.70
2022-12-09T14:09:54.680Z,7.60
2022-12-09T14:12:32.646Z,7.60
2022-12-09T14:15:04.327Z,7.70
2022-12-09T14:17:31.241Z,7.60
2022-12-09T14:20:19.872Z,7.60
2022-12-09T14:23:08.536Z,7.60
2022-12-09T14:25:35.621Z,7.60
2022-12-09T14:28:11.943Z,7.70
2022-12-09T14:30:54.928Z,7.70
2022-12-09T14:33:35.994Z,7.90
2022-12-09T14:36:06.952Z,7.70
2022-12-09T14:42:05.867Z,7.60
2022-12-09T14:44:41.902Z,7.70
2022-12-09T14:47:29.965Z,7.70
2022-12-09T14:50:07.327Z,7.70
2022-12-09T14:52:34.976Z,7.70
2022-12-09T14:55:08.260Z,7.70
2022-12-09T14:57:44.000Z,7.70
2022-12-09T15:00:35.294Z,7.80
2022-12-09T15:06:02.979Z,7.70
2022-12-09T15:08:31.333Z,7.60
2022-12-09T15:11:00.000Z,7.80
2022-12-09T15:13:29.876Z,7.70
2022-12-09T15:15:57.565Z,7.70
2022-12-09T15:18:26.480Z,7.70
2022-12-09T15:21:00.082Z,7.80
2022-12-09T15:23:43.897Z,7.80
2022-12-09T15:26:21.327Z,7.70
2022-12-09T15:28:50.775Z,7.80
2022-12-09T15:31:21.341Z,7.80
2022-12-09T15:33:54.023Z,7.70
2022-12-09T15:36:22.766Z,7.70
2022-12-09T15:39:01.265Z,7.80
2022-12-09T15:41:57.227Z,7.80
2022-12-09T15:44:25.949Z,7.80
2022-12-09T15:46:57.010Z,7.70
2022-12-09T15:49:32.816Z,7.70
2022-12-09T15:52:02.988Z,7.70
2022-12-09T15:54:35.739Z,7.70
2022-12-09T15:57:05.719Z,8.20
2022-12-09T15:59:42.070Z,7.70
2022-12-09T16:02:27.515Z,7.70
2022-12-09T16:05:00.591Z,7.80
2022-12-09T16:07:28.052Z,7.80
2022-12-09T16:10:05.701Z,7.90
2022-12-09T16:12:37.093Z,8.00
2022-12-09T16:15:10.632Z,8.00
2022-12-09T16:17:53.608Z,8.10
2022-12-09T16:20:35.902Z,8.00
2022-12-09T16:23:05.990Z,8.00
2022-12-09T16:25:42.013Z,8.00
2022-12-09T16:28:30.640Z,8.00
2022-12-09T16:31:01.284Z,8.00
2022-12-09T16:33:34.131Z,8.00
2022-12-09T16:36:04.560Z,8.30
2022-12-09T16:38:36.229Z,8.00
2022-12-09T16:41:09.295Z,7.90
2022-12-09T16:43:36.979Z,7.80
2022-12-09T16:46:12.868Z,8.00
2022-12-09T16:48:40.186Z,7.90
2022-12-09T16:51:17.647Z,7.80
2022-12-09T16:53:47.649Z,7.90
2022-12-09T16:56:22.174Z,7.80
2022-12-09T16:58:53.461Z,7.80
2022-12-09T17:01:24.696Z,7.80
2022-12-09T17:03:54.478Z,8.10
2022-12-09T17:06:25.027Z,7.80
2022-12-09T17:08:52.096Z,7.90
2022-12-09T17:11:21.545Z,7.80
2022-12-09T17:13:52.862Z,7.80
2022-12-09T17:16:32.634Z,7.80
2022-12-09T17:18:59.926Z,8.00
2022-12-09T17:21:26.793Z,7.80
2022-12-09T17:23:54.796Z,7.80
2022-12-09T17:26:22.300Z,7.80
2022-12-09T17:28:50.049Z,7.80
2022-12-09T17:31:20.608Z,7.80
2022-12-09T17:33:49.069Z,7.80
2022-12-09T17:36:17.991Z,7.80
2022-12-09T17:38:48.040Z,7.80
2022-12-09T17:41:19.521Z,7.80
2022-12-09T17:43:50.414Z,7.80
2022-12-09T17:46:21.561Z,7.80
2022-12-09T17:48:48.513Z,7.80
2022-12-09T17:51:20.043Z,7.80
2022-12-09T17:53:47.842Z,7.70
2022-12-09T17:56:21.855Z,7.80
2022-12-09T17:58:58.248Z,7.80
2022-12-09T18:01:26.073Z,7.80
2022-12-09T18:04:02.665Z,7.80
2022-12-09T18:06:34.680Z,8.00
2022-12-09T18:09:04.021Z,8.10
2022-12-09T18:11:31.306Z,7.80
2022-12-09T18:13:58.692Z,7.90
2022-12-09T18:16:25.918Z,7.80
2022-12-09T18:18:55.196Z,7.80
2022-12-09T18:21:23.646Z,7.80
2022-12-09T18:23:50.775Z,7.80
2022-12-09T18:26:19.580Z,7.80
2022-12-09T18:28:47.194Z,7.80
2022-12-09T18:31:17.629Z,7.90
2022-12-09T18:33:45.198Z,7.80
2022-12-09T18:36:18.635Z,8.00
2022-12-09T18:38:45.983Z,7.90
2022-12-09T18:41:16.765Z,8.10
2022-12-09T18:43:46.720Z,7.90
2022-12-09T18:46:26.915Z,7.90
2022-12-09T18:48:57.538Z,8.00
2022-12-09T18:51:25.279Z,8.00
2022-12-09T18:53:52.853Z,8.00
2022-12-09T18:56:20.080Z,7.90
2022-12-09T18:59:05.946Z,7.90
2022-12-09T19:01:37.899Z,7.80
2022-12-09T19:04:05.713Z,7.90
2022-12-09T19:06:39.032Z,7.90
2022-12-09T19:09:09.227Z,7.80
2022-12-09T19:11:41.559Z,7.80
2022-12-09T19:14:10.847Z,7.80
2022-12-09T19:16:38.582Z,7.80
2022-12-09T19:19:10.344Z,7.80
2022-12-09T19:21:41.828Z,7.80
2022-12-09T19:24:18.039Z,7.80
2022-12-09T19:26:45.803Z,7.90
2022-12-09T19:29:14.509Z,7.90
2022-12-09T19:31:44.480Z,7.90
2022-12-09T19:34:30.548Z,7.90
2022-12-09T19:37:00.766Z,7.90
2022-12-09T19:39:34.198Z,7.90
2022-12-09T19:42:02.316Z,7.90
2022-12-09T19:45:00.921Z,7.90
2022-12-09T19:47:17.761Z,7.50
2022-12-09T19:49:45.201Z,7.90
2022-12-09T19:52:13.026Z,7.90
2022-12-09T19:54:40.491Z,7.90
2022-12-09T19:57:41.111Z,7.90
2022-12-09T20:00:09.303Z,7.90
2022-12-09T20:02:37.906Z,7.80
2022-12-09T20:05:07.187Z,7.90
2022-12-09T20:07:37.237Z,7.80
2022-12-09T20:10:04.545Z,7.90
2022-12-09T20:12:34.094Z,7.90
2022-12-09T20:15:01.253Z,7.90
2022-12-09T20:17:28.345Z,7.80
2022-12-09T20:19:55.996Z,7.80
2022-12-09T20:22:23.219Z,7.80
2022-12-09T20:24:50.249Z,7.80
2022-12-09T20:27:17.304Z,7.90
2022-12-09T20:29:44.221Z,7.90
2022-12-09T20:32:12.563Z,7.90
2022-12-09T20:34:39.616Z,7.90
2022-12-09T20:37:07.321Z,7.90
2022-12-09T20:39:35.322Z,8.00
2022-12-09T20:42:02.304Z,8.00
2022-12-09T20:44:29.325Z,8.00
2022-12-09T20:46:56.963Z,8.00
2022-12-09T20:49:26.972Z,8.00
2022-12-09T20:51:55.347Z,8.00
2022-12-09T20:54:22.504Z,8.00
2022-12-09T20:56:50.356Z,8.00
2022-12-09T20:59:38.535Z,7.80
2022-12-09T21:02:09.454Z,8.00
2022-12-09T21:04:40.067Z,8.10
2022-12-09T21:07:06.908Z,8.10
2022-12-09T21:09:34.062Z,8.00
2022-12-09T21:12:01.105Z,8.10
2022-12-09T21:14:33.129Z,8.10
2022-12-09T21:17:00.313Z,8.10
2022-12-09T21:19:30.073Z,8.00
2022-12-09T21:22:01.647Z,8.50
2022-12-09T21:24:29.589Z,8.00
2022-12-09T21:26:57.319Z,8.00
2022-12-09T21:29:31.294Z,8.10
2022-12-09T21:32:02.251Z,8.10
2022-12-09T21:34:30.330Z,8.00
2022-12-09T21:36:57.496Z,8.10
2022-12-09T21:39:24.430Z,8.10
2022-12-09T21:41:54.153Z,8.10
2022-12-09T21:44:22.385Z,8.10
2022-12-09T21:46:49.370Z,8.10
2022-12-09T21:49:17.148Z,8.10
2022-12-09T21:51:46.285Z,8.10
2022-12-09T21:54:13.635Z,8.00
2022-12-09T21:56:41.421Z,8.10
2022-12-09T21:59:11.206Z,8.10
2022-12-09T22:01:40.859Z,8.10
2022-12-09T22:04:12.169Z,8.10
2022-12-09T22:06:39.671Z,8.10
2022-12-09T22:09:08.848Z,8.10
2022-12-09T22:11:38.110Z,8.20
2022-12-09T22:14:06.624Z,8.10
2022-12-09T22:16:37.262Z,8.10
2022-12-09T22:19:08.166Z,8.10
2022-12-09T22:21:36.662Z,8.10
2022-12-09T22:24:09.333Z,8.10
2022-12-09T22:26:36.947Z,8.10
2022-12-09T22:29:05.978Z,8.10
2022-12-09T22:31:36.447Z,8.10
2022-12-09T22:34:10.950Z,8.10
2022-12-09T22:36:38.494Z,8.20
2022-12-09T22:39:07.873Z,8.10
2022-12-09T22:41:35.517Z,8.10
2022-12-09T22:44:03.055Z,8.20
2022-12-09T22:46:33.109Z,8.20
2022-12-09T22:49:03.098Z,8.10
2022-12-09T22:51:31.715Z,8.10
2022-12-09T22:53:59.308Z,8.10
2022-12-09T22:56:27.489Z,8.10
2022-12-09T22:58:54.524Z,8.10
2022-12-09T23:01:25.684Z,8.10
2022-12-09T23:03:54.907Z,8.10
2022-12-09T23:06:22.032Z,8.10
2022-12-09T23:08:49.201Z,8.40
2022-12-09T23:11:24.490Z,8.10
2022-12-09T23:13:52.227Z,8.10
2022-12-09T23:16:22.296Z,8.00
2022-12-09T23:18:50.034Z,8.00
2022-12-09T23:21:19.866Z,8.00
2022-12-09T23:23:47.766Z,8.00
2022-12-09T23:26:19.166Z,8.00
2022-12-09T23:28:50.039Z,8.00
2022-12-09T23:31:23.017Z,8.00
2022-12-09T23:33:51.753Z,8.10
2022-12-09T23:36:21.872Z,8.00
2022-12-09T23:38:49.606Z,8.10
2022-12-09T23:41:19.390Z,8.10
2022-12-09T23:43:47.108Z,8.10
2022-12-09T23:46:19.560Z,8.10
2022-12-09T23:48:48.273Z,8.10
2022-12-09T23:51:21.189Z,8.10
2022-12-09T23:53:50.138Z,8.10
2022-12-09T23:56:19.973Z,8.10
2022-12-09T23:58:47.039Z,8.10
